Time,TemperatureF,DewpointF,PressureIn,WindDirection,WindDirectionDegrees,WindSpeedMPH,WindSpeedGustMPH,Humidity,HourlyPrecipIn,Conditions,Clouds,dailyrainin,SoftwareType,DateUTC
2013-08-12 00:06:00,77.4,74.2,29.95,SSW,202,0.0,-999.0,90,-99.99,,,0.00,Acu-Link.com,2013-08-12 04:06:00,
2013-08-12 00:21:00,77.2,74.0,29.95,East,90,0.0,-999.0,90,-99.99,,,0.00,Acu-Link.com,2013-08-12 04:21:00,
2013-08-12 00:36:00,77.2,74.0,29.96,ESE,112,1.7,-999.0,90,-99.99,,,0.00,Acu-Link.com,2013-08-12 04:36:00,
2013-08-12 00:51:00,77.0,73.8,29.95,SE,135,1.7,-999.0,90,-99.99,,,0.00,Acu-Link.com,2013-08-12 04:51:00,
2013-08-12 01:06:00,76.6,73.8,29.95,South,180,1.1,-999.0,91,-99.99,,,0.00,Acu-Link.com,2013-08-12 05:06:00,
2013-08-12 01:22:00,76.3,73.5,29.95,West,270,0.0,-999.0,91,-99.99,,,0.00,Acu-Link.com,2013-08-12 05:22:00,
2013-08-12 01:37:00,75.9,73.4,29.94,WSW,247,0.0,-999.0,92,-99.99,,,0.00,Acu-Link.com,2013-08-12 05:37:00,
2013-08-12 01:52:00,75.6,73.1,29.94,West,270,0.0,-999.0,92,-99.99,,,0.00,Acu-Link.com,2013-08-12 05:52:00,
2013-08-12 02:07:00,75.4,72.9,29.94,SW,225,0.0,-999.0,92,-99.99,,,0.00,Acu-Link.com,2013-08-12 06:07:00,
2013-08-12 02:22:00,75.4,72.9,29.94,East,90,0.0,-999.0,92,-99.99,,,0.00,Acu-Link.com,2013-08-12 06:22:00,
2013-08-12 02:37:00,75.6,73.1,29.93,West,270,0.0,-999.0,92,-99.99,,,0.00,Acu-Link.com,2013-08-12 06:37:00,
2013-08-12 02:53:00,75.6,73.1,29.92,WNW,292,0.0,-999.0,92,-99.99,,,0.00,Acu-Link.com,2013-08-12 06:53:00,
2013-08-12 03:08:00,75.7,73.5,29.92,WNW,292,0.0,-999.0,93,-99.99,,,0.00,Acu-Link.com,2013-08-12 07:08:00,
2013-08-12 03:23:00,75.6,73.4,29.92,WSW,247,0.0,-999.0,93,-99.99,,,0.00,Acu-Link.com,2013-08-12 07:23:00,
2013-08-12 03:38:00,75.4,73.2,29.92,West,270,0.0,-999.0,93,-99.99,,,0.00,Acu-Link.com,2013-08-12 07:38:00,
2013-08-12 03:53:00,75.4,73.2,29.92,West,270,0.0,-999.0,93,-99.99,,,0.00,Acu-Link.com,2013-08-12 07:53:00,
2013-08-12 04:09:00,75.2,73.0,29.92,SSE,157,0.0,-999.0,93,-99.99,,,0.00,Acu-Link.com,2013-08-12 08:09:00,
2013-08-12 04:24:00,75.2,73.0,29.92,West,270,0.0,-999.0,93,-99.99,,,0.00,Acu-Link.com,2013-08-12 08:24:00,
2013-08-12 04:39:00,75.0,73.2,29.92,West,270,0.0,-999.0,94,-99.99,,,0.00,Acu-Link.com,2013-08-12 08:39:00,
2013-08-12 04:54:00,75.4,73.9,29.92,WSW,247,0.0,-999.0,95,-99.99,,,0.00,Acu-Link.com,2013-08-12 08:54:00,
2013-08-12 05:09:00,75.0,73.5,29.92,West,270,0.0,-999.0,95,-99.99,,,0.00,Acu-Link.com,2013-08-12 09:09:00,
2013-08-12 05:24:00,74.8,73.0,29.91,SSW,202,0.0,-999.0,94,-99.99,,,0.00,Acu-Link.com,2013-08-12 09:24:00,
2013-08-12 05:40:00,74.7,72.9,29.91,WNW,292,0.0,-999.0,94,-99.99,,,0.00,Acu-Link.com,2013-08-12 09:40:00,
2013-08-12 05:55:00,74.7,73.2,29.92,WSW,247,0.0,-999.0,95,-99.99,,,0.00,Acu-Link.com,2013-08-12 09:55:00,
2013-08-12 06:10:00,74.8,73.6,29.92,WSW,247,0.0,-999.0,96,-99.99,,,0.00,Acu-Link.com,2013-08-12 10:10:00,
2013-08-12 06:25:00,74.8,73.6,29.92,NE,45,0.0,-999.0,96,-99.99,,,0.00,Acu-Link.com,2013-08-12 10:25:00,
2013-08-12 06:40:00,75.6,74.7,29.93,SW,225,0.0,-999.0,97,-99.99,,,0.00,Acu-Link.com,2013-08-12 10:40:00,
2013-08-12 06:56:00,75.0,74.1,29.92,ESE,112,0.0,-999.0,97,-99.99,,,0.00,Acu-Link.com,2013-08-12 10:56:00,
2013-08-12 07:11:00,75.0,74.1,29.93,ESE,112,0.0,-999.0,97,-99.99,,,0.00,Acu-Link.com,2013-08-12 11:11:00,
2013-08-12 07:26:00,75.6,74.7,29.93,SSE,157,1.1,-999.0,97,-99.99,,,0.00,Acu-Link.com,2013-08-12 11:26:00,
2013-08-12 07:41:00,77.4,76.5,29.94,ESE,112,0.0,-999.0,97,-99.99,,,0.00,Acu-Link.com,2013-08-12 11:41:00,
2013-08-12 07:56:00,79.2,77.3,29.94,ESE,112,0.0,-999.0,94,-99.99,,,0.00,Acu-Link.com,2013-08-12 11:56:00,
2013-08-12 08:12:00,82.4,79.2,29.94,SW,225,0.0,-999.0,90,-99.99,,,0.00,Acu-Link.com,2013-08-12 12:12:00,
2013-08-12 08:27:00,84.6,78.8,29.94,SE,135,0.0,-999.0,83,-99.99,,,0.00,Acu-Link.com,2013-08-12 12:27:00,
2013-08-12 08:42:00,86.4,78.3,29.94,East,90,0.0,-999.0,77,-99.99,,,0.00,Acu-Link.com,2013-08-12 12:42:00,
2013-08-12 08:57:00,88.2,78.8,29.94,NNE,22,0.0,-999.0,74,-99.99,,,0.00,Acu-Link.com,2013-08-12 12:57:00,
2013-08-12 09:12:00,89.8,79.1,29.94,SW,225,1.1,-999.0,71,-99.99,,,0.00,Acu-Link.com,2013-08-12 13:12:00,
2013-08-12 09:28:00,84.4,77.9,29.93,ESE,112,4.2,-999.0,81,-99.99,,,0.00,Acu-Link.com,2013-08-12 13:28:00,
2013-08-12 09:43:00,85.1,77.4,29.94,East,90,2.7,-999.0,78,-99.99,,,0.00,Acu-Link.com,2013-08-12 13:43:00,
2013-08-12 09:58:00,82.8,77.1,29.94,WNW,292,2.2,-999.0,83,-99.99,,,0.00,Acu-Link.com,2013-08-12 13:58:00,
2013-08-12 10:13:00,85.1,78.2,29.93,WSW,247,2.7,-999.0,80,-99.99,,,0.00,Acu-Link.com,2013-08-12 14:13:00,
2013-08-12 10:29:00,84.6,77.3,29.93,NNW,337,3.2,-999.0,79,-99.99,,,0.00,Acu-Link.com,2013-08-12 14:29:00,
2013-08-12 10:44:00,84.6,77.3,29.93,NNW,337,1.1,-999.0,79,-99.99,,,0.00,Acu-Link.com,2013-08-12 14:44:00,
2013-08-12 10:59:00,88.3,79.3,29.93,NNW,337,0.0,-999.0,75,-99.99,,,0.00,Acu-Link.com,2013-08-12 14:59:00,
2013-08-12 11:14:00,87.3,79.2,29.94,West,270,0.0,-999.0,77,-99.99,,,0.00,Acu-Link.com,2013-08-12 15:14:00,
2013-08-12 11:29:00,88.5,79.5,29.93,WNW,292,3.2,-999.0,75,-99.99,,,0.00,Acu-Link.com,2013-08-12 15:29:00,
2013-08-12 11:45:00,90.3,79.2,29.94,East,90,4.7,-999.0,70,-99.99,,,0.00,Acu-Link.com,2013-08-12 15:45:00,
2013-08-12 12:00:00,89.4,78.7,29.92,East,90,3.7,-999.0,71,-99.99,,,0.00,Acu-Link.com,2013-08-12 16:00:00,
2013-08-12 12:15:00,89.4,78.7,29.92,SSE,157,4.7,-999.0,71,-99.99,,,0.00,Acu-Link.com,2013-08-12 16:15:00,
2013-08-12 12:30:00,91.0,78.9,29.91,NNE,22,4.2,-999.0,68,-99.99,,,0.00,Acu-Link.com,2013-08-12 16:30:00,
2013-08-12 12:45:00,90.0,78.9,29.90,East,90,4.2,-999.0,70,-99.99,,,0.00,Acu-Link.com,2013-08-12 16:45:00,
2013-08-12 13:01:00,91.0,78.5,29.90,ESE,112,4.2,-999.0,67,-99.99,,,0.00,Acu-Link.com,2013-08-12 17:01:00,
2013-08-12 13:16:00,91.2,78.7,29.90,North,0,4.2,-999.0,67,-99.99,,,0.00,Acu-Link.com,2013-08-12 17:16:00,
2013-08-12 13:31:00,91.8,79.2,29.89,ENE,67,2.2,-999.0,67,-99.99,,,0.00,Acu-Link.com,2013-08-12 17:31:00,
2013-08-12 13:46:00,90.0,78.0,29.89,ESE,112,4.7,-999.0,68,-99.99,,,0.00,Acu-Link.com,2013-08-12 17:46:00,
2013-08-12 14:01:00,92.7,78.7,29.90,ESE,112,4.7,-999.0,64,-99.99,,,0.00,Acu-Link.com,2013-08-12 18:01:00,
2013-08-12 14:17:00,91.2,77.3,29.88,NW,315,3.2,-999.0,64,-99.99,,,0.00,Acu-Link.com,2013-08-12 18:17:00,
2013-08-12 14:32:00,93.0,78.0,29.88,SE,135,4.7,-999.0,62,-99.99,,,0.00,Acu-Link.com,2013-08-12 18:32:00,
2013-08-12 14:47:00,93.4,78.9,29.88,SE,135,2.2,-999.0,63,-99.99,,,0.00,Acu-Link.com,2013-08-12 18:47:00,
2013-08-12 15:03:00,93.6,79.1,29.87,East,90,4.7,-999.0,63,-99.99,,,0.00,Acu-Link.com,2013-08-12 19:03:00,
2013-08-12 15:18:00,94.3,77.7,29.86,WNW,292,4.7,-999.0,59,-99.99,,,0.00,Acu-Link.com,2013-08-12 19:18:00,
2013-08-12 15:33:00,93.9,77.4,29.85,ESE,112,6.8,-999.0,59,-99.99,,,0.00,Acu-Link.com,2013-08-12 19:33:00,
2013-08-12 15:48:00,94.5,77.9,29.85,NNE,22,0.0,-999.0,59,-99.99,,,0.00,Acu-Link.com,2013-08-12 19:48:00,
2013-08-12 16:03:00,94.5,77.9,29.83,ESE,112,4.7,-999.0,59,-99.99,,,0.00,Acu-Link.com,2013-08-12 20:03:00,
2013-08-12 16:19:00,97.2,77.7,29.84,East,90,3.7,-999.0,54,-99.99,,,0.00,Acu-Link.com,2013-08-12 20:19:00,
2013-08-12 16:34:00,94.5,76.9,29.84,West,270,2.7,-999.0,57,-99.99,,,0.00,Acu-Link.com,2013-08-12 20:34:00,
2013-08-12 16:49:00,93.7,76.6,29.82,NE,45,1.7,-999.0,58,-99.99,,,0.00,Acu-Link.com,2013-08-12 20:49:00,
2013-08-12 17:04:00,95.7,77.4,29.83,East,90,4.2,-999.0,56,-99.99,,,0.00,Acu-Link.com,2013-08-12 21:04:00,
2013-08-12 17:20:00,96.4,77.0,29.82,ENE,67,6.8,-999.0,54,-99.99,,,0.00,Acu-Link.com,2013-08-12 21:20:00,
2013-08-12 17:35:00,98.4,77.1,29.82,NE,45,2.7,-999.0,51,-99.99,,,0.00,Acu-Link.com,2013-08-12 21:35:00,
2013-08-12 18:05:00,95.7,76.3,29.81,ESE,112,4.7,-999.0,54,-99.99,,,0.00,Acu-Link.com,2013-08-12 22:05:00,
2013-08-12 18:20:00,94.8,76.1,29.81,SE,135,4.7,-999.0,55,-99.99,,,0.00,Acu-Link.com,2013-08-12 22:20:00,
2013-08-12 18:36:00,94.8,76.6,29.82,NE,45,4.7,-999.0,56,-99.99,,,0.00,Acu-Link.com,2013-08-12 22:36:00,
2013-08-12 18:51:00,93.4,76.4,29.83,ESE,112,3.2,-999.0,58,-99.99,,,0.00,Acu-Link.com,2013-08-12 22:51:00,
2013-08-12 19:06:00,92.1,76.7,29.83,SW,225,3.7,-999.0,61,-99.99,,,0.00,Acu-Link.com,2013-08-12 23:06:00,
2013-08-12 19:22:00,91.2,76.3,29.83,WSW,247,2.7,-999.0,62,-99.99,,,0.00,Acu-Link.com,2013-08-12 23:22:00,
2013-08-12 19:37:00,89.6,76.2,29.83,ESE,112,2.7,-999.0,65,-99.99,,,0.00,Acu-Link.com,2013-08-12 23:37:00,
2013-08-12 19:52:00,88.3,76.4,29.82,ESE,112,3.7,-999.0,68,-99.99,,,0.00,Acu-Link.com,2013-08-12 23:52:00,
2013-08-12 20:07:00,86.9,77.2,29.84,ESE,112,3.7,-999.0,73,-99.99,,,0.00,Acu-Link.com,2013-08-13 00:07:00,
2013-08-12 20:22:00,85.6,76.7,29.84,ESE,112,2.7,-999.0,75,-99.99,,,0.00,Acu-Link.com,2013-08-13 00:22:00,
2013-08-12 20:37:00,85.5,76.6,29.84,SSW,202,1.7,-999.0,75,-99.99,,,0.00,Acu-Link.com,2013-08-13 00:37:00,
2013-08-12 20:52:00,84.7,75.1,29.85,ESE,112,3.7,-999.0,73,-99.99,,,0.00,Acu-Link.com,2013-08-13 00:52:00,
2013-08-12 21:08:00,84.0,74.4,29.86,SE,135,2.7,-999.0,73,-99.99,,,0.00,Acu-Link.com,2013-08-13 01:08:00,
2013-08-12 21:23:00,83.7,74.5,29.85,SSE,157,4.2,-999.0,74,-99.99,,,0.00,Acu-Link.com,2013-08-13 01:23:00,
2013-08-12 21:38:00,82.9,73.7,29.86,WSW,247,0.0,-999.0,74,-99.99,,,0.00,Acu-Link.com,2013-08-13 01:38:00,
2013-08-12 21:53:00,82.4,74.1,29.87,SSW,202,2.2,-999.0,76,-99.99,,,0.00,Acu-Link.com,2013-08-13 01:53:00,
2013-08-12 22:08:00,81.9,74.0,29.87,West,270,0.0,-999.0,77,-99.99,,,0.00,Acu-Link.com,2013-08-13 02:08:00,
2013-08-12 22:24:00,81.5,74.0,29.88,SW,225,0.0,-999.0,78,-99.99,,,0.00,Acu-Link.com,2013-08-13 02:24:00,
2013-08-12 22:39:00,81.1,73.6,29.89,West,270,0.0,-999.0,78,-99.99,,,0.00,Acu-Link.com,2013-08-13 02:39:00,
2013-08-12 22:54:00,81.1,73.6,29.89,West,270,0.0,-999.0,78,-99.99,,,0.00,Acu-Link.com,2013-08-13 02:54:00,
2013-08-12 23:09:00,81.1,73.6,29.89,West,270,0.0,-999.0,78,-99.99,,,0.00,Acu-Link.com,2013-08-13 03:09:00,
2013-08-12 23:25:00,80.4,73.3,29.88,West,270,0.0,-999.0,79,-99.99,,,0.00,Acu-Link.com,2013-08-13 03:25:00,
2013-08-12 23:40:00,79.9,73.9,29.88,SSE,157,0.0,-999.0,82,-99.99,,,0.00,Acu-Link.com,2013-08-13 03:40:00,
2013-08-12 23:55:00,79.7,73.7,29.87,SE,135,3.7,-999.0,82,-99.99,,,0.00,Acu-Link.com,2013-08-13 03:55:00,